Time;durP1;ratioP1;P1;durP2;ratioP2;P2;SDS_P1;SDS_P2;PMS_P1;PMS_P2;Temp;Humidity;BMP_temperature;BMP_pressure;BME280_temperature;BME280_humidity;BME280_pressure;Samples;Min_cycle;Max_cycle;Signal;HPM_P1;HPM_P2
2022/10/24 00:02:58;;;;;;;33.63;22.60;;;;;;;8.78;90.89;98916.18;2171403;81;20930;-83
2022/10/24 00:05:58;;;;;;;27.93;20.10;;;;;;;8.84;91.87;98919.33;2171450;81;20945;-84
2022/10/24 00:08:59;;;;;;;31.10;21.33;;;;;;;8.90;91.20;98920.33;2171378;82;20933;-79
2022/10/24 00:11:59;;;;;;;66.57;24.00;;;;;;;8.91;91.07;98920.78;2172151;82;20973;-83
2022/10/24 00:15:00;;;;;;;35.50;22.23;;;;;;;8.93;91.20;98924.72;2173223;81;20957;-83
2022/10/24 00:18:00;;;;;;;183.37;29.17;;;;;;;8.89;91.10;98917.27;2173441;81;20977;-84
2022/10/24 00:21:00;;;;;;;106.10;24.70;;;;;;;8.81;90.84;98918.84;2173560;81;20899;-83
2022/10/24 00:24:01;;;;;;;37.17;20.70;;;;;;;8.79;90.95;98920.54;2173265;81;20894;-83
2022/10/24 00:27:01;;;;;;;35.27;21.60;;;;;;;8.74;91.02;98910.88;2173100;81;20913;-83
2022/10/24 00:30:02;;;;;;;32.00;21.47;;;;;;;8.72;91.43;98907.38;2173213;81;21337;-84
2022/10/24 00:33:02;;;;;;;30.03;21.97;;;;;;;8.76;92.09;98900.95;2173257;81;21024;-84
2022/10/24 00:36:02;;;;;;;34.93;22.20;;;;;;;8.79;92.74;98900.14;2173390;81;20957;-84
2022/10/24 00:39:03;;;;;;;29.00;21.13;;;;;;;8.79;92.70;98889.30;2173389;81;20945;-83
2022/10/24 00:42:03;;;;;;;36.80;22.63;;;;;;;8.82;92.52;98888.06;2173134;81;21007;-83
2022/10/24 00:45:04;;;;;;;33.77;21.70;;;;;;;8.83;92.80;98895.45;2173011;81;21333;-84
2022/10/24 00:48:04;;;;;;;32.33;22.33;;;;;;;8.87;93.07;98894.66;2173192;81;20917;-84
2022/10/24 00:51:04;;;;;;;29.37;20.90;;;;;;;8.90;93.57;98903.41;2173318;81;20965;-84
2022/10/24 00:54:05;;;;;;;25.03;19.90;;;;;;;8.93;93.26;98907.37;2173246;81;20985;-84
2022/10/24 00:57:05;;;;;;;25.27;17.90;;;;;;;8.98;93.21;98906.58;2173351;81;20933;-84
2022/10/24 01:00:06;;;;;;;24.90;18.53;;;;;;;8.97;92.43;98898.31;2173341;81;20985;-84
2022/10/24 01:03:06;;;;;;;26.73;18.50;;;;;;;8.91;92.25;98896.05;2172809;81;20925;-84
2022/10/24 01:06:07;;;;;;;27.70;19.40;;;;;;;8.88;92.04;98894.69;2173126;81;20925;-84
2022/10/24 01:09:08;;;;;;;33.57;21.30;;;;;;;8.90;92.21;98892.99;2173166;81;20968;-83
2022/10/24 01:12:08;;;;;;;25.53;20.47;;;;;;;8.90;92.85;98886.48;2173535;81;21018;-84
2022/10/24 01:15:09;;;;;;;25.80;20.50;;;;;;;8.89;92.77;98893.84;2173720;81;20925;-83
2022/10/24 01:18:10;;;;;;;29.77;19.93;;;;;;;8.91;92.67;98892.56;2173284;81;20972;-85
2022/10/24 01:21:10;;;;;;;32.27;21.10;;;;;;;8.93;92.82;98888.27;2173546;81;20925;-84
2022/10/24 01:24:10;;;;;;;31.03;22.67;;;;;;;8.99;93.64;98890.11;2173380;81;20981;-85
2022/10/24 01:27:10;;;;;;;25.93;20.77;;;;;;;9.03;93.85;98894.52;2173455;81;21312;-85
2022/10/24 01:30:11;;;;;;;27.40;21.33;;;;;;;9.06;93.19;98893.28;2173409;81;20921;-84
2022/10/24 01:33:14;;;;;;;27.30;21.77;;;;;;;9.07;92.87;98889.83;2173763;81;20969;-84
2022/10/24 01:36:12;;;;;;;32.10;22.03;;;;;;;9.08;93.07;98883.34;2173525;81;20934;-84
2022/10/24 01:39:12;;;;;;;27.43;21.43;;;;;;;9.09;92.75;98881.62;2173624;81;20973;-84
2022/10/24 01:42:12;;;;;;;27.00;20.63;;;;;;;9.06;93.44;98880.26;2173890;81;20984;-84
2022/10/24 01:45:13;;;;;;;55.63;22.50;;;;;;;9.04;93.71;98878.05;2173695;81;20944;-85
2022/10/24 01:48:13;;;;;;;26.70;20.07;;;;;;;9.03;93.69;98868.48;2173571;81;20973;-85
2022/10/24 01:51:14;;;;;;;28.80;21.47;;;;;;;9.01;93.48;98855.86;2173355;81;20945;-85
2022/10/24 01:54:14;;;;;;;28.90;22.67;;;;;;;9.03;94.27;98858.08;2173398;81;20949;-85
2022/10/24 01:57:14;;;;;;;30.63;23.50;;;;;;;9.07;94.67;98855.98;2173409;81;20928;-85
2022/10/24 02:00:15;;;;;;;29.77;21.97;;;;;;;9.09;95.25;98846.04;2173309;81;20882;-84
2022/10/24 02:03:15;;;;;;;31.40;22.20;;;;;;;9.14;96.28;98837.00;2173470;81;20930;-85
2022/10/24 02:06:16;;;;;;;31.23;23.07;;;;;;;9.16;95.49;98842.69;2173091;81;20933;-84
2022/10/24 02:09:16;;;;;;;30.80;21.73;;;;;;;9.19;96.08;98845.77;2173293;81;20980;-85
2022/10/24 02:12:16;;;;;;;28.40;21.63;;;;;;;9.24;96.18;98838.91;2173712;81;20989;-85
2022/10/24 02:15:17;;;;;;;34.33;21.50;;;;;;;9.29;96.05;98843.78;2173539;81;20965;-83
2022/10/24 02:18:17;;;;;;;37.13;22.13;;;;;;;9.31;95.70;98840.77;2172619;81;21301;-85
2022/10/24 02:21:18;;;;;;;30.47;21.77;;;;;;;9.36;95.84;98833.91;2171395;81;20898;-84
2022/10/24 02:24:18;;;;;;;31.80;22.50;;;;;;;9.38;95.63;98832.20;2172054;81;20989;-85
2022/10/24 02:27:18;;;;;;;34.07;23.40;;;;;;;9.40;95.72;98840.92;2172344;81;20925;-84
2022/10/24 02:30:19;;;;;;;31.00;22.83;;;;;;;9.44;95.64;98833.61;2172079;81;20937;-85
2022/10/24 02:33:19;;;;;;;90.47;24.80;;;;;;;9.47;95.48;98834.08;2170318;81;21004;-84
2022/10/24 02:36:20;;;;;;;39.77;22.30;;;;;;;9.49;95.63;98826.73;2170656;81;21000;-85
2022/10/24 02:39:20;;;;;;;29.17;23.43;;;;;;;9.51;95.57;98825.03;2170807;81;20901;-85
2022/10/24 02:42:21;;;;;;;37.33;23.03;;;;;;;9.51;95.27;98820.25;2172880;81;21360;-85
2022/10/24 02:45:21;;;;;;;29.23;22.83;;;;;;;9.52;95.62;98816.80;2169853;81;20929;-85
2022/10/24 02:48:21;;;;;;;27.60;22.50;;;;;;;9.51;95.36;98814.61;2171931;81;20945;-84
2022/10/24 02:51:22;;;;;;;32.00;23.47;;;;;;;9.49;95.38;98812.41;2170702;81;20988;-84
2022/10/24 02:54:22;;;;;;;29.73;22.70;;;;;;;9.49;95.37;98817.63;2170381;81;21408;-84
2022/10/24 02:57:25;;;;;;;31.63;22.97;;;;;;;9.49;95.69;98809.80;2170255;81;20914;-85
2022/10/24 03:00:25;;;;;;;30.33;24.00;;;;;;;9.47;95.73;98813.23;2172626;81;20980;-85
2022/10/24 03:03:28;;;;;;;35.20;24.67;;;;;;;9.47;95.71;98814.54;2173179;81;20940;-85
2022/10/24 03:06:28;;;;;;;33.33;24.30;;;;;;;9.46;95.75;98806.27;2173421;81;21356;-85
2022/10/24 03:09:29;;;;;;;31.97;23.40;;;;;;;9.44;95.85;98803.64;2173281;81;20961;-85
2022/10/24 03:12:29;;;;;;;25.63;21.23;;;;;;;9.43;95.98;98807.53;2173117;81;20958;-85
2022/10/24 03:15:30;;;;;;;44.23;24.30;;;;;;;9.41;96.26;98804.90;2170852;81;20941;-85
2022/10/24 03:18:30;;;;;;;31.37;24.07;;;;;;;9.40;96.14;98807.05;2170863;81;20925;-85
2022/10/24 03:21:30;;;;;;;29.30;22.53;;;;;;;9.41;96.31;98810.11;2170475;81;20945;-84
2022/10/24 03:24:31;;;;;;;30.53;23.53;;;;;;;9.44;96.33;98811.46;2170222;81;20966;-84
2022/10/24 03:27:32;;;;;;;31.73;24.00;;;;;;;9.44;96.24;98819.28;2171918;81;20945;-85
2022/10/24 03:30:32;;;;;;;31.40;23.40;;;;;;;9.42;96.24;98815.77;2172408;81;20969;-84
2022/10/24 03:33:32;;;;;;;29.10;23.90;;;;;;;9.45;96.15;98809.30;2171514;81;20969;-84
2022/10/24 03:36:32;;;;;;;32.20;23.03;;;;;;;9.45;96.03;98808.00;2169459;81;20949;-83
2022/10/24 03:39:33;;;;;;;31.87;23.00;;;;;;;9.49;96.14;98805.89;2170008;81;20995;-83
2022/10/24 03:42:33;;;;;;;26.40;21.90;;;;;;;9.50;96.08;98797.22;2170134;81;21099;-85
2022/10/24 03:45:34;;;;;;;31.77;22.80;;;;;;;9.53;96.00;98798.58;2170332;81;20949;-80
2022/10/24 03:48:34;;;;;;;29.57;22.37;;;;;;;9.56;96.09;98794.75;2169636;81;20905;-83
2022/10/24 03:51:35;;;;;;;28.20;21.37;;;;;;;9.59;95.96;98790.01;2169704;82;21428;-84
2022/10/24 03:54:35;;;;;;;30.13;22.73;;;;;;;9.57;95.90;98795.20;2167556;81;21000;-85
2022/10/24 03:57:35;;;;;;;28.10;21.43;;;;;;;9.60;95.92;98797.40;2168124;81;20957;-85
2022/10/24 04:00:39;;;;;;;24.83;20.67;;;;;;;9.61;96.14;98795.24;2168578;81;20957;-84
2022/10/24 04:03:36;;;;;;;23.80;19.67;;;;;;;9.61;96.14;98795.24;2170562;81;20968;-84
2022/10/24 04:06:38;;;;;;;22.63;19.30;;;;;;;9.62;96.18;98791.78;2169677;81;20971;-85
2022/10/24 04:09:37;;;;;;;25.27;20.33;;;;;;;9.60;96.52;98781.77;2168995;81;21077;-83
2022/10/24 04:12:37;;;;;;;29.00;21.03;;;;;;;9.56;96.22;98788.66;2168478;81;21059;-83
2022/10/24 04:15:38;;;;;;;24.57;19.60;;;;;;;9.57;96.58;98786.50;2168990;81;20960;-81
2022/10/24 04:18:38;;;;;;;25.23;20.87;;;;;;;9.57;96.52;98786.50;2168425;81;20991;-81
2022/10/24 04:21:39;;;;;;;25.30;20.07;;;;;;;9.58;96.50;98785.65;2166882;81;21016;-83
2022/10/24 04:24:39;;;;;;;24.27;20.63;;;;;;;9.60;96.79;98781.77;2168441;81;21877;-83
2022/10/24 04:27:40;;;;;;;24.80;19.80;;;;;;;9.63;96.57;98787.02;2168609;81;21039;-84
2022/10/24 04:30:40;;;;;;;22.80;19.20;;;;;;;9.65;96.52;98780.97;2167495;81;21023;-83
2022/10/24 04:33:40;;;;;;;23.27;18.93;;;;;;;9.64;96.55;98777.92;2167544;81;21035;-85
2022/10/24 04:36:41;;;;;;;26.47;20.57;;;;;;;9.63;96.79;98773.98;2168439;81;20961;-85
2022/10/24 04:39:41;;;;;;;29.30;20.13;;;;;;;9.61;96.69;98769.18;2168686;81;21008;-80
2022/10/24 04:42:42;;;;;;;41.27;21.20;;;;;;;9.61;96.72;98770.48;2167642;81;21016;-84
2022/10/24 04:45:42;;;;;;;22.90;19.20;;;;;;;9.60;96.69;98759.61;2167414;81;20957;-85
2022/10/24 04:48:44;;;;;;;22.70;19.23;;;;;;;9.55;96.91;98755.63;2168372;81;20981;-84
2022/10/24 04:51:44;;;;;;;23.90;19.60;;;;;;;9.51;96.79;98752.08;2169106;81;20957;-83
2022/10/24 04:54:44;;;;;;;28.07;20.47;;;;;;;9.50;96.78;98756.84;2169571;81;20965;-83
2022/10/24 04:57:45;;;;;;;24.40;19.97;;;;;;;9.46;96.75;98755.05;2167616;81;20988;-83
2022/10/24 05:00:48;;;;;;;26.20;20.63;;;;;;;9.47;96.97;98755.49;2166758;81;20992;-83
2022/10/24 05:03:46;;;;;;;26.00;21.20;;;;;;;9.47;97.01;98763.30;2168086;81;20972;-81
2022/10/24 05:06:46;;;;;;;88.40;59.70;;;;;;;9.45;97.21;98753.29;2165829;81;20995;-83
2022/10/24 05:09:47;;;;;;;32.97;25.20;;;;;;;9.50;97.45;98758.57;2167524;81;20976;-80
2022/10/24 05:12:47;;;;;;;24.87;20.37;;;;;;;9.53;97.30;98750.37;2169733;81;21008;-80
2022/10/24 05:15:52;;;;;;;27.37;21.53;;;;;;;9.55;97.32;98755.63;2170690;81;21747;-84
2022/10/24 05:18:50;;;;;;;27.67;20.00;;;;;;;9.55;97.30;98757.81;2163637;82;21230;-84
2022/10/24 05:21:50;;;;;;;26.30;19.53;;;;;;;9.60;97.21;98754.40;2170473;81;21324;-83
2022/10/24 05:24:51;;;;;;;39.20;20.17;;;;;;;9.58;97.31;98742.22;2170205;81;21024;-82
2022/10/24 05:27:51;;;;;;;29.63;19.63;;;;;;;9.58;97.23;98726.59;2170523;81;20969;-83
2022/10/24 05:30:52;;;;;;;29.73;21.87;;;;;;;9.61;97.25;98723.58;2170421;81;20961;-84
2022/10/24 05:33:54;;;;;;;32.33;20.77;;;;;;;9.62;97.40;98735.33;2158298;82;21016;-84
2022/10/24 05:36:54;;;;;;;21.90;18.17;;;;;;;9.62;97.17;98738.36;2169885;81;21404;-84
2022/10/24 05:39:55;;;;;;;25.03;19.30;;;;;;;9.64;97.06;98741.86;2170518;81;20989;-84
2022/10/24 05:42:55;;;;;;;30.67;20.53;;;;;;;9.66;97.02;98745.36;2169685;81;21263;-85
2022/10/24 05:45:56;;;;;;;60.60;20.63;;;;;;;9.70;96.98;98749.34;2170010;81;20988;-85
2022/10/24 05:48:56;;;;;;;26.33;18.83;;;;;;;9.76;96.99;98749.84;2169720;81;21015;-84
2022/10/24 05:51:56;;;;;;;38.40;17.80;;;;;;;9.80;96.80;98741.21;2169142;81;20992;-83
2022/10/24 05:54:57;;;;;;;32.17;18.60;;;;;;;9.84;96.65;98741.70;2170124;81;21088;-83
2022/10/24 05:57:57;;;;;;;69.13;43.17;;;;;;;9.86;96.63;98736.08;2170105;81;21036;-84
2022/10/24 06:00:58;;;;;;;35.90;18.43;;;;;;;10.16;100.00;98750.80;2169747;81;20992;-83
2022/10/24 06:04:00;;;;;;;22.47;17.97;;;;;;;10.60;97.79;98740.47;2169456;81;21016;-84
2022/10/24 06:07:00;;;;;;;52.43;19.27;;;;;;;10.48;95.91;98729.05;2163575;82;20972;-84
2022/10/24 06:10:02;;;;;;;21.75;16.40;;;;;;;10.42;95.50;98748.55;2170088;81;20992;-83
2022/10/24 06:13:01;;;;;;;21.23;16.87;;;;;;;10.38;95.21;98750.64;2171388;81;21009;-84
2022/10/24 06:16:02;;;;;;;19.57;16.47;;;;;;;10.37;95.25;98751.94;2167601;81;21024;-84
2022/10/24 06:19:02;;;;;;;82.97;20.07;;;;;;;10.47;95.42;98753.39;2168168;81;21183;-81
2022/10/24 06:22:02;;;;;;;20.97;17.20;;;;;;;10.58;95.41;98758.72;2167393;82;20984;-83
2022/10/24 06:25:03;;;;;;;22.48;17.23;;;;;;;10.71;95.20;98760.59;2167747;82;21404;-83
2022/10/24 06:28:03;;;;;;;44.73;18.57;;;;;;;10.86;94.88;98769.00;2168128;81;21364;-84
2022/10/24 06:31:04;;;;;;;23.67;16.80;;;;;;;10.97;94.60;98778.24;2167034;81;21400;-84
2022/10/24 06:34:04;;;;;;;24.30;16.50;;;;;;;11.07;94.46;98774.42;2167072;81;21039;-84
2022/10/24 06:37:05;;;;;;;28.32;16.27;;;;;;;11.16;94.34;98764.05;2167503;81;21036;-84
2022/10/24 06:40:05;;;;;;;21.90;15.00;;;;;;;11.25;94.12;98771.08;2167801;81;21027;-84
2022/10/24 06:43:05;;;;;;;22.87;16.62;;;;;;;11.37;94.00;98786.89;2167310;81;21020;-83
2022/10/24 06:46:06;;;;;;;28.35;17.45;;;;;;;11.47;93.88;98791.76;2167642;81;21012;-85
2022/10/24 06:49:06;;;;;;;23.00;16.02;;;;;;;11.55;94.28;98777.00;2168590;81;20949;-84
2022/10/24 06:52:07;;;;;;;20.27;16.73;;;;;;;11.60;93.92;98793.59;2168509;81;21031;-85
2022/10/24 06:55:07;;;;;;;26.45;15.88;;;;;;;11.61;93.90;98786.19;2168152;81;21386;-84
2022/10/24 06:58:07;;;;;;;23.18;16.52;;;;;;;11.64;93.88;98786.21;2167898;81;20921;-84
2022/10/24 07:01:08;;;;;;;20.52;15.20;;;;;;;11.64;93.78;98789.26;2167959;81;21080;-83
2022/10/24 07:04:08;;;;;;;18.92;14.75;;;;;;;11.67;93.80;98786.23;2168195;81;21023;-84
2022/10/24 07:07:09;;;;;;;22.37;16.55;;;;;;;11.78;93.89;98774.56;2168529;81;20992;-86
2022/10/24 07:10:09;;;;;;;22.15;15.18;;;;;;;11.99;93.56;98776.42;2168020;81;20960;-82
2022/10/24 07:13:10;;;;;;;24.23;14.73;;;;;;;12.21;93.39;98778.73;2167122;81;21044;-85
2022/10/24 07:16:10;;;;;;;23.52;15.55;;;;;;;12.48;92.88;98784.08;2168632;81;20984;-82
2022/10/24 07:19:10;;;;;;;27.65;16.07;;;;;;;12.74;92.52;98765.38;2167735;81;20937;-84
2022/10/24 07:22:11;;;;;;;28.50;18.00;;;;;;;12.89;92.23;98776.31;2167280;82;20977;-85
2022/10/24 07:25:11;;;;;;;22.62;17.70;;;;;;;13.05;91.98;98775.92;2168906;81;20984;-85
2022/10/24 07:28:12;;;;;;;60.05;32.90;;;;;;;13.17;91.67;98764.17;2167024;81;20921;-83
2022/10/24 07:31:13;;;;;;;22.27;17.42;;;;;;;13.24;91.70;98754.12;2166466;82;21003;-84
2022/10/24 07:34:12;;;;;;;35.25;16.07;;;;;;;13.28;91.68;98745.38;2166946;81;20985;-85
2022/10/24 07:37:13;;;;;;;36.90;17.15;;;;;;;13.25;91.57;98778.16;2167022;82;20921;-83
2022/10/24 07:40:16;;;;;;;18.23;14.38;;;;;;;13.27;91.30;98764.61;2166710;81;20957;-83
2022/10/24 07:43:17;;;;;;;21.25;14.35;;;;;;;13.28;91.79;98751.94;2167906;81;21047;-83
2022/10/24 07:46:17;;;;;;;19.35;14.20;;;;;;;13.32;91.84;98760.23;2166696;81;21380;-84
2022/10/24 07:49:17;;;;;;;15.70;13.28;;;;;;;13.38;91.61;98761.55;2169771;81;20945;-85
2022/10/24 07:52:18;;;;;;;16.65;13.48;;;;;;;13.45;92.01;98739.25;2170462;81;21090;-83
2022/10/24 07:55:18;;;;;;;19.42;13.75;;;;;;;13.49;92.06;98718.70;2167709;81;21024;-83
2022/10/24 07:58:19;;;;;;;21.12;12.55;;;;;;;13.54;91.72;98730.06;2166993;81;20992;-83
2022/10/24 08:01:19;;;;;;;17.57;12.33;;;;;;;13.62;91.19;98738.34;2167331;81;20996;-84
2022/10/24 08:04:20;;;;;;;36.08;26.35;;;;;;;13.74;90.86;98751.00;2167924;81;21019;-84
2022/10/24 08:07:20;;;;;;;31.52;17.17;;;;;;;13.82;90.77;98744.86;2169325;81;20964;-82
2022/10/24 08:10:20;;;;;;;20.50;14.55;;;;;;;13.97;90.92;98746.16;2169587;81;20925;-83
2022/10/24 08:13:21;;;;;;;23.30;15.48;;;;;;;14.11;90.38;98757.04;2167842;81;21039;-82
2022/10/24 08:16:21;;;;;;;23.25;14.70;;;;;;;14.23;90.34;98745.17;2167164;81;21005;-83
2022/10/24 08:19:22;;;;;;;19.35;17.25;;;;;;;14.39;90.65;98733.72;2168949;81;20957;-83
2022/10/24 08:22:22;;;;;;;25.23;16.93;;;;;;;14.55;90.30;98741.11;2168582;81;20973;-84
2022/10/24 08:25:22;;;;;;;19.23;15.72;;;;;;;14.69;90.09;98734.45;2167013;81;20957;-82
2022/10/24 08:28:23;;;;;;;25.02;15.05;;;;;;;14.85;90.12;98734.38;2168341;81;20925;-83
2022/10/24 08:31:23;;;;;;;18.73;15.13;;;;;;;15.00;89.68;98733.84;2166673;81;20968;-82
2022/10/24 08:34:24;;;;;;;20.55;14.07;;;;;;;15.13;89.27;98739.42;2167725;81;20988;-80
2022/10/24 08:37:24;;;;;;;25.85;15.00;;;;;;;15.27;88.98;98734.48;2165742;81;21403;-83
2022/10/24 08:40:25;;;;;;;24.50;16.12;;;;;;;15.42;88.54;98725.58;2169051;81;21012;-82
2022/10/24 08:43:25;;;;;;;22.30;16.30;;;;;;;15.59;88.00;98738.60;2166890;81;20972;-82
2022/10/24 08:46:26;;;;;;;27.37;18.85;;;;;;;15.74;87.86;98737.61;2167916;81;20960;-77
2022/10/24 08:49:26;;;;;;;39.27;21.15;;;;;;;15.89;87.17;98738.75;2166640;81;20981;-84
2022/10/24 08:52:29;;;;;;;25.15;16.15;;;;;;;15.97;86.75;98736.91;2167541;81;21008;-84
2022/10/24 08:55:29;;;;;;;28.47;15.38;;;;;;;16.10;86.36;98745.53;2163927;82;21011;-83
2022/10/24 08:58:29;;;;;;;30.55;16.05;;;;;;;16.22;86.09;98753.28;2168458;81;20968;-83
2022/10/24 09:01:30;;;;;;;19.75;12.65;;;;;;;16.31;85.72;98746.58;2167245;81;20941;-83
2022/10/24 09:04:31;;;;;;;19.15;12.55;;;;;;;16.40;85.79;98742.52;2167589;82;21019;-83
2022/10/24 09:07:31;;;;;;;22.52;13.30;;;;;;;16.49;85.74;98745.06;2168503;82;20965;-83
2022/10/24 09:10:32;;;;;;;30.17;13.58;;;;;;;16.59;85.59;98748.89;2168335;82;21005;-83
2022/10/24 09:13:32;;;;;;;16.60;11.00;;;;;;;16.65;85.00;98766.83;2169959;81;21028;-83
2022/10/24 09:16:33;;;;;;;14.45;8.60;;;;;;;16.66;85.27;98768.58;2167902;81;20926;-84
2022/10/24 09:19:33;;;;;;;12.03;8.03;;;;;;;16.77;85.17;98771.06;2168469;82;20997;-83
2022/10/24 09:22:34;;;;;;;12.35;8.10;;;;;;;16.86;84.52;98774.89;2169209;81;20957;-83
2022/10/24 09:25:34;;;;;;;14.38;8.23;;;;;;;16.89;83.93;98752.44;2168819;81;21404;-84
2022/10/24 09:28:34;;;;;;;37.63;9.00;;;;;;;16.97;83.46;98766.37;2169818;81;21020;-84
2022/10/24 09:31:35;;;;;;;11.28;7.00;;;;;;;17.02;83.61;98740.80;2170231;81;20936;-83
2022/10/24 09:34:35;;;;;;;17.37;8.30;;;;;;;17.16;83.09;98737.50;2168187;81;20992;-82
2022/10/24 09:37:35;;;;;;;13.88;7.83;;;;;;;17.25;82.75;98733.84;2170315;81;21356;-83
2022/10/24 09:40:36;;;;;;;20.20;8.93;;;;;;;17.35;82.23;98727.55;2169635;81;20968;-84
2022/10/24 09:43:36;;;;;;;12.23;8.28;;;;;;;17.43;81.68;98743.23;2168399;81;20964;-83
2022/10/24 09:46:37;;;;;;;25.57;8.80;;;;;;;17.45;81.23;98740.12;2167761;81;20988;-82
2022/10/24 09:49:37;;;;;;;11.97;7.80;;;;;;;17.49;81.50;98741.81;2168488;81;20937;-82
2022/10/24 09:52:38;;;;;;;11.40;7.15;;;;;;;17.54;80.71;98753.16;2169184;81;21388;-82
2022/10/24 09:55:38;;;;;;;11.55;7.12;;;;;;;17.55;80.86;98748.30;2167437;81;20992;-82
2022/10/24 09:58:38;;;;;;;9.03;6.47;;;;;;;17.58;80.18;98765.85;2169019;81;20992;-83
2022/10/24 10:01:40;;;;;;;42.60;9.98;;;;;;;17.56;79.47;98768.52;2166920;81;21326;-82
2022/10/24 10:04:39;;;;;;;14.98;7.58;;;;;;;17.59;79.55;98752.63;2166312;81;21031;-82
2022/10/24 10:07:40;;;;;;;14.30;7.35;;;;;;;17.72;79.38;98749.34;2168017;81;20956;-83
2022/10/24 10:10:40;;;;;;;28.02;18.07;;;;;;;17.83;79.38;98739.46;2168323;81;21438;-82
2022/10/24 10:13:41;;;;;;;12.30;7.45;;;;;;;17.88;79.12;98748.61;2168396;81;21008;-83
2022/10/24 10:16:43;;;;;;;14.15;7.33;;;;;;;17.89;78.69;98751.67;2157437;82;21116;-83
2022/10/24 10:19:44;;;;;;;16.67;7.05;;;;;;;18.01;79.07;98741.75;2167280;81;20985;-81
2022/10/24 10:22:44;;;;;;;9.78;6.55;;;;;;;18.14;78.25;98734.00;2166955;81;20984;-83
2022/10/24 10:25:44;;;;;;;15.78;7.17;;;;;;;18.28;77.65;98736.39;2166802;82;20976;-82
2022/10/24 10:28:47;;;;;;;15.32;6.60;;;;;;;18.35;76.46;98743.73;2166663;82;20996;-83
2022/10/24 10:31:48;;;;;;;11.60;5.92;;;;;;;18.52;77.23;98727.52;2168272;81;20991;-83
2022/10/24 10:34:48;;;;;;;14.47;7.08;;;;;;;18.75;75.27;98721.30;2166657;81;21419;-83
2022/10/24 10:37:49;;;;;;;22.20;7.47;;;;;;;18.84;75.68;98721.53;2168721;81;20953;-83
2022/10/24 10:40:49;;;;;;;11.65;6.95;;;;;;;18.85;75.53;98732.08;2168145;81;20984;-84
2022/10/24 10:43:49;;;;;;;16.85;7.55;;;;;;;18.94;75.16;98742.44;2169644;81;20941;-84
2022/10/24 10:46:50;;;;;;;9.60;6.25;;;;;;;18.96;74.12;98746.38;2168585;81;21456;-84
2022/10/24 10:49:50;;;;;;;9.28;6.37;;;;;;;18.90;74.02;98755.31;2168076;81;21043;-84
2022/10/24 10:52:50;;;;;;;10.38;6.97;;;;;;;18.89;74.68;98752.25;2168565;81;21028;-84
2022/10/24 10:55:51;;;;;;;9.95;6.00;;;;;;;18.96;74.59;98751.20;2167311;81;20989;-84
2022/10/24 10:58:51;;;;;;;11.73;6.20;;;;;;;19.02;74.37;98745.77;2169571;81;20981;-83
2022/10/24 11:01:52;;;;;;;18.12;7.28;;;;;;;19.05;73.51;98754.95;2168482;81;20960;-83
2022/10/24 11:04:52;;;;;;;12.63;5.92;;;;;;;19.09;73.25;98759.76;2169248;81;20992;-84
2022/10/24 11:07:54;;;;;;;39.33;8.20;;;;;;;19.13;73.46;98738.94;2169431;81;21004;-84
2022/10/24 11:10:53;;;;;;;22.85;7.60;;;;;;;19.26;73.37;98739.05;2168057;81;21323;-83
2022/10/24 11:13:53;;;;;;;34.95;8.08;;;;;;;19.35;72.73;98733.52;2168592;81;21024;-84
2022/10/24 11:16:54;;;;;;;14.13;6.57;;;;;;;19.44;73.03;98733.75;2170515;81;21012;-82
2022/10/24 11:19:54;;;;;;;18.00;6.30;;;;;;;19.51;72.71;98727.84;2171451;81;20968;-83
2022/10/24 11:22:55;;;;;;;12.90;6.60;;;;;;;19.56;72.54;98725.52;2171016;81;20961;-83
2022/10/24 11:25:55;;;;;;;12.53;5.35;;;;;;;19.56;71.49;98720.22;2170558;82;21352;-85
2022/10/24 11:28:55;;;;;;;15.53;6.40;;;;;;;19.56;69.91;98715.39;2170133;82;21005;-83
2022/10/24 11:31:56;;;;;;;9.33;5.65;;;;;;;19.44;71.04;98713.89;2169817;81;20988;-83
2022/10/24 11:34:56;;;;;;;12.03;5.58;;;;;;;19.41;71.07;98708.68;2170250;81;20975;-84
2022/10/24 11:37:57;;;;;;;10.43;5.10;;;;;;;19.36;71.42;98707.47;2170803;81;21381;-84
2022/10/24 11:40:57;;;;;;;13.72;5.47;;;;;;;19.31;70.14;98708.50;2170967;81;20929;-84
2022/10/24 11:43:57;;;;;;;27.90;5.72;;;;;;;19.21;71.22;98703.89;2171171;82;21007;-84
2022/10/24 11:46:58;;;;;;;19.92;6.40;;;;;;;19.16;70.99;98702.27;2170516;81;21012;-83
2022/10/24 11:49:58;;;;;;;25.57;6.35;;;;;;;19.15;71.39;98701.86;2171057;81;20997;-84
2022/10/24 11:52:59;;;;;;;18.57;6.35;;;;;;;19.19;70.80;98704.39;2170746;81;20956;-84
2022/10/24 11:56:00;;;;;;;39.60;6.50;;;;;;;19.32;70.89;98706.27;2170873;82;21028;-83
2022/10/24 11:59:00;;;;;;;23.60;6.80;;;;;;;19.50;71.00;98705.80;2170401;81;21018;-85
2022/10/24 12:02:01;;;;;;;58.87;8.13;;;;;;;19.66;70.00;98700.53;2170342;81;20980;-85
2022/10/24 12:05:01;;;;;;;13.83;5.45;;;;;;;19.75;69.02;98694.58;2170260;81;20991;-84
2022/10/24 12:08:02;;;;;;;19.95;6.10;;;;;;;19.83;69.76;98693.45;2169796;81;21012;-83
2022/10/24 12:11:02;;;;;;;9.18;5.45;;;;;;;19.85;68.88;98686.33;2171225;81;21008;-82
2022/10/24 12:14:03;;;;;;;19.37;6.30;;;;;;;19.82;68.47;98691.72;2170645;82;20957;-82
2022/10/24 12:17:04;;;;;;;31.55;6.17;;;;;;;19.89;68.50;98691.09;2171129;81;21070;-82
2022/10/24 12:20:04;;;;;;;15.08;5.35;;;;;;;19.89;67.84;98693.73;2171440;82;21019;-83
2022/10/24 12:23:05;;;;;;;25.27;15.78;;;;;;;19.87;68.03;98687.61;2171372;81;21606;-83
2022/10/24 12:26:05;;;;;;;23.02;5.70;;;;;;;19.89;67.65;98680.49;2170990;81;20976;-83
2022/10/24 12:29:06;;;;;;;18.55;5.55;;;;;;;19.87;67.63;98687.61;2170992;81;20988;-82
2022/10/24 12:32:07;;;;;;;16.62;4.50;;;;;;;19.87;66.93;98682.31;2170272;81;20972;-84
2022/10/24 12:35:07;;;;;;;23.07;5.28;;;;;;;19.90;67.60;98684.88;2170168;82;21023;-84
2022/10/24 12:38:07;;;;;;;29.55;5.92;;;;;;;19.98;67.67;98672.31;2170386;81;20969;-83
2022/10/24 12:41:08;;;;;;;18.02;5.10;;;;;;;19.98;66.30;98674.97;2170052;81;20996;-83
2022/10/24 12:44:08;;;;;;;52.93;7.58;;;;;;;19.90;67.16;98671.64;2170259;81;21256;-83
2022/10/24 12:47:09;;;;;;;38.55;6.47;;;;;;;19.93;66.79;98667.57;2169966;81;21583;-83
2022/10/24 12:50:09;;;;;;;15.55;4.72;;;;;;;20.02;67.22;98658.07;2169674;81;21400;-82
2022/10/24 12:53:10;;;;;;;28.65;6.25;;;;;;;20.18;66.55;98648.75;2170466;81;20988;-83
2022/10/24 12:56:10;;;;;;;32.75;7.30;;;;;;;20.27;65.78;98651.13;2169848;81;21007;-84
2022/10/24 12:59:10;;;;;;;7.70;4.17;;;;;;;20.39;65.46;98649.02;2169776;81;20960;-84
2022/10/24 13:02:11;;;;;;;12.45;4.28;;;;;;;20.50;65.64;98646.94;2170133;81;21312;-85
2022/10/24 13:05:11;;;;;;;11.35;4.55;;;;;;;20.58;65.61;98651.54;2170236;81;21313;-85
2022/10/24 13:08:12;;;;;;;15.30;4.90;;;;;;;20.54;64.80;98645.92;2169804;81;20953;-83
2022/10/24 13:11:12;;;;;;;19.90;5.17;;;;;;;20.45;64.70;98648.86;2169084;81;21007;-82
2022/10/24 13:14:12;;;;;;;26.35;5.90;;;;;;;20.30;64.55;98644.41;2169192;81;21064;-83
2022/10/24 13:17:13;;;;;;;19.12;5.67;;;;;;;20.22;65.15;98636.28;2167271;81;21012;-85
2022/10/24 13:20:13;;;;;;;19.15;4.80;;;;;;;20.19;65.27;98645.19;2167788;80;21004;-83
2022/10/24 13:23:14;;;;;;;15.55;5.25;;;;;;;20.17;65.32;98641.72;2166866;82;20941;-83
2022/10/24 13:26:14;;;;;;;15.98;5.47;;;;;;;20.22;65.58;98638.92;2167551;81;20952;-85
2022/10/24 13:29:15;;;;;;;12.88;4.65;;;;;;;20.22;65.78;98641.58;2166914;81;20928;-84
2022/10/24 13:32:15;;;;;;;9.10;4.22;;;;;;;20.18;65.24;98648.75;2167247;81;20933;-83
2022/10/24 13:35:15;;;;;;;17.67;4.80;;;;;;;20.08;65.61;98647.75;2167638;82;21063;-83
2022/10/24 13:38:16;;;;;;;14.45;4.70;;;;;;;19.97;65.99;98644.09;2167489;81;20961;-83
2022/10/24 13:41:16;;;;;;;9.40;4.85;;;;;;;19.88;66.09;98650.48;2167275;81;21016;-84
2022/10/24 13:44:17;;;;;;;10.98;5.10;;;;;;;19.78;66.36;98650.80;2168076;80;20941;-83
2022/10/24 13:47:17;;;;;;;18.57;5.17;;;;;;;19.66;66.96;98645.39;2168347;80;21063;-83
2022/10/24 13:50:17;;;;;;;9.13;4.97;;;;;;;19.55;67.41;98647.46;2168430;82;20972;-84
2022/10/24 13:53:20;;;;;;;23.32;5.75;;;;;;;19.48;67.80;98650.70;2169983;81;20945;-85
2022/10/24 13:56:20;;;;;;;124.50;14.40;;;;;;;19.40;67.96;98641.64;2163877;82;20937;-85
2022/10/24 13:59:21;;;;;;;110.17;13.48;;;;;;;19.35;68.50;98642.22;2167725;81;21434;-85